createdAt,value
2022-10-24T00:01:36.685Z,2.73
2022-10-24T00:06:34.111Z,3.60
2022-10-24T00:09:01.736Z,3.03
2022-10-24T00:11:31.213Z,2.80
2022-10-24T00:13:59.707Z,2.50
2022-10-24T00:16:29.020Z,3.10
2022-10-24T00:18:57.006Z,3.07
2022-10-24T00:21:25.196Z,2.93
2022-10-24T00:23:53.485Z,2.77
2022-10-24T00:26:21.273Z,3.33
2022-10-24T00:28:48.906Z,2.87
2022-10-24T00:31:20.422Z,3.07
2022-10-24T00:33:48.956Z,3.10
2022-10-24T00:36:23.234Z,3.07
2022-10-24T00:38:53.051Z,3.63
2022-10-24T00:41:38.123Z,2.90
2022-10-24T00:44:30.000Z,3.03
2022-10-24T00:47:26.190Z,4.60
2022-10-24T00:50:15.254Z,3.90
2022-10-24T00:52:47.687Z,3.40
2022-10-24T00:55:16.267Z,3.37
2022-10-24T00:57:53.529Z,3.13
2022-10-24T01:00:31.949Z,3.77
2022-10-24T01:03:00.942Z,3.33
2022-10-24T01:05:55.306Z,3.63
2022-10-24T01:09:01.398Z,3.97
2022-10-24T01:11:51.679Z,4.10
2022-10-24T01:15:01.142Z,3.87
2022-10-24T01:17:50.785Z,4.97
2022-10-24T01:21:04.197Z,3.40
2022-10-24T01:24:08.092Z,2.90
2022-10-24T01:27:09.906Z,3.60
2022-10-24T01:30:14.135Z,5.40
2022-10-24T01:33:06.856Z,3.83
2022-10-24T01:36:03.389Z,3.43
2022-10-24T01:38:57.616Z,2.80
2022-10-24T01:41:31.406Z,2.80
2022-10-24T01:44:25.347Z,2.57
2022-10-24T01:47:10.714Z,5.33
2022-10-24T01:49:46.749Z,2.80
2022-10-24T01:52:19.386Z,2.27
2022-10-24T01:54:49.041Z,2.53
2022-10-24T01:57:16.881Z,2.77
2022-10-24T01:59:49.231Z,2.47
2022-10-24T02:02:34.829Z,2.67
2022-10-24T02:05:53.812Z,3.90
2022-10-24T02:08:36.560Z,2.70
2022-10-24T02:11:09.003Z,2.33
2022-10-24T02:14:11.096Z,3.27
2022-10-24T02:16:39.017Z,2.33
2022-10-24T02:19:07.271Z,2.60
2022-10-24T02:22:03.764Z,2.83
2022-10-24T02:25:24.359Z,2.63
2022-10-24T02:28:16.424Z,2.40
2022-10-24T02:31:07.380Z,3.63
2022-10-24T02:33:43.927Z,2.53
2022-10-24T02:36:22.994Z,3.20
2022-10-24T02:38:55.493Z,2.70
2022-10-24T02:41:39.441Z,2.50
2022-10-24T02:44:11.733Z,3.00
2022-10-24T02:46:42.156Z,2.90
2022-10-24T02:49:10.116Z,3.00
2022-10-24T02:51:44.903Z,3.30
2022-10-24T02:54:12.772Z,3.07
2022-10-24T02:56:52.169Z,2.50
2022-10-24T02:59:19.809Z,2.70
2022-10-24T03:01:47.329Z,2.90
2022-10-24T03:04:15.130Z,2.80
2022-10-24T03:06:43.215Z,3.23
2022-10-24T03:09:11.285Z,4.60
2022-10-24T03:11:39.658Z,3.30
2022-10-24T03:14:07.697Z,3.00
2022-10-24T03:16:41.442Z,2.60
2022-10-24T03:19:09.141Z,2.70
2022-10-24T03:21:36.974Z,2.37
2022-10-24T03:24:05.115Z,2.50
2022-10-24T03:26:33.306Z,2.93
2022-10-24T03:29:01.244Z,2.80
2022-10-24T03:31:31.715Z,3.43
2022-10-24T03:34:00.024Z,2.93
2022-10-24T03:36:28.003Z,2.47
2022-10-24T03:38:56.212Z,2.53
2022-10-24T03:41:24.563Z,2.30
2022-10-24T03:43:52.198Z,3.03
2022-10-24T03:46:19.801Z,2.03
2022-10-24T03:48:47.403Z,2.97
2022-10-24T03:51:16.068Z,2.20
2022-10-24T03:53:43.726Z,3.13
2022-10-24T03:56:11.691Z,2.20
2022-10-24T03:58:49.241Z,3.43
2022-10-24T04:01:20.071Z,2.70
2022-10-24T04:03:48.626Z,3.37
2022-10-24T04:06:16.552Z,2.10
2022-10-24T04:08:44.159Z,3.33
2022-10-24T04:11:12.884Z,2.43
2022-10-24T04:13:40.871Z,2.60
2022-10-24T04:16:09.803Z,3.33
2022-10-24T04:18:37.396Z,3.27
2022-10-24T04:21:05.530Z,3.17
2022-10-24T04:23:38.530Z,3.80
2022-10-24T04:26:06.610Z,3.13
2022-10-24T04:28:35.201Z,3.30
2022-10-24T04:31:02.921Z,3.17
2022-10-24T04:33:30.954Z,3.40
2022-10-24T04:35:58.848Z,3.60
2022-10-24T04:38:29.881Z,3.20
2022-10-24T04:41:01.257Z,3.40
2022-10-24T04:43:28.980Z,3.90
2022-10-24T04:45:56.623Z,3.10
2022-10-24T04:48:24.399Z,2.77
2022-10-24T04:50:52.750Z,3.57
2022-10-24T04:53:20.536Z,2.67
2022-10-24T04:55:48.121Z,2.77
2022-10-24T04:58:16.168Z,2.80
2022-10-24T05:00:46.729Z,3.20
2022-10-24T05:03:15.140Z,3.93
2022-10-24T05:05:42.790Z,3.40
2022-10-24T05:08:11.268Z,3.53
2022-10-24T05:10:39.294Z,2.63
2022-10-24T05:13:07.203Z,2.83
2022-10-24T05:15:35.125Z,3.60
2022-10-24T05:18:03.841Z,3.37
2022-10-24T05:20:31.739Z,2.77
2022-10-24T05:22:59.440Z,3.27
2022-10-24T05:25:27.157Z,2.93
2022-10-24T05:27:54.852Z,3.17
2022-10-24T05:30:22.723Z,2.70
2022-10-24T05:32:50.370Z,2.50
2022-10-24T05:35:18.167Z,2.23
2022-10-24T05:37:45.741Z,2.10
2022-10-24T05:40:14.299Z,2.97
2022-10-24T05:42:42.190Z,2.07
2022-10-24T05:45:12.949Z,2.13
2022-10-24T05:47:40.622Z,1.87
2022-10-24T05:50:10.654Z,2.80
2022-10-24T05:52:44.580Z,2.47
2022-10-24T05:55:17.895Z,3.53
2022-10-24T05:57:46.548Z,2.50
2022-10-24T06:00:17.960Z,2.87
2022-10-24T06:05:20.952Z,3.17
2022-10-24T06:07:49.667Z,3.00
2022-10-24T06:10:17.839Z,2.90
2022-10-24T06:12:45.929Z,3.67
2022-10-24T06:15:14.491Z,3.17
2022-10-24T06:17:42.104Z,3.57
2022-10-24T06:20:11.324Z,2.43
2022-10-24T06:22:40.351Z,2.37
2022-10-24T06:25:08.815Z,3.10
2022-10-24T06:27:36.541Z,2.37
2022-10-24T06:30:07.150Z,2.90
2022-10-24T06:32:34.791Z,2.90
2022-10-24T06:35:02.357Z,3.40
2022-10-24T06:37:30.431Z,2.40
2022-10-24T06:39:57.964Z,3.20
2022-10-24T06:42:25.854Z,2.30
2022-10-24T06:44:54.004Z,2.80
2022-10-24T06:47:21.696Z,2.17
2022-10-24T06:49:49.794Z,1.90
2022-10-24T06:52:17.451Z,2.90
2022-10-24T06:54:45.171Z,1.80
2022-10-24T06:57:12.825Z,1.60
2022-10-24T06:59:40.546Z,1.93
2022-10-24T07:02:12.688Z,1.90
2022-10-24T07:04:40.678Z,2.20
2022-10-24T07:07:13.251Z,2.10
2022-10-24T07:09:40.903Z,2.00
2022-10-24T07:12:08.650Z,2.23
2022-10-24T07:14:36.464Z,2.20
2022-10-24T07:17:05.903Z,2.23
2022-10-24T07:19:37.156Z,2.57
2022-10-24T07:22:06.106Z,2.33
2022-10-24T07:24:34.528Z,2.00
2022-10-24T07:27:02.498Z,2.30
2022-10-24T07:29:30.100Z,2.43
2022-10-24T07:31:59.569Z,2.27
2022-10-24T07:34:29.266Z,2.13
2022-10-24T07:36:57.641Z,1.83
2022-10-24T07:39:25.230Z,1.87
2022-10-24T07:41:52.884Z,1.40
2022-10-24T07:44:21.033Z,1.60
2022-10-24T07:46:48.789Z,2.03
2022-10-24T07:49:16.547Z,2.00
2022-10-24T07:51:44.229Z,1.60
2022-10-24T07:54:13.159Z,1.70
2022-10-24T07:56:40.830Z,1.50
2022-10-24T07:59:09.524Z,1.70
2022-10-24T08:01:41.762Z,1.43
2022-10-24T08:04:11.633Z,1.60
2022-10-24T08:06:40.809Z,1.70
2022-10-24T08:09:09.149Z,1.97
2022-10-24T08:11:36.867Z,1.80
2022-10-24T08:14:04.608Z,1.23
2022-10-24T08:16:32.354Z,1.53
2022-10-24T08:19:00.091Z,1.40
2022-10-24T08:21:27.775Z,1.93
2022-10-24T08:23:56.049Z,1.40
2022-10-24T08:26:27.108Z,1.40
2022-10-24T08:28:55.786Z,1.67
2022-10-24T08:31:26.617Z,1.60
2022-10-24T08:33:56.457Z,1.67
2022-10-24T08:36:32.700Z,1.80
2022-10-24T08:39:02.667Z,1.60
2022-10-24T08:41:43.871Z,2.40
2022-10-24T08:44:28.403Z,3.10
2022-10-24T08:50:33.602Z,1.50
2022-10-24T08:53:17.155Z,2.10
2022-10-24T08:55:53.599Z,1.73
2022-10-24T08:58:47.075Z,1.80
2022-10-24T09:01:48.425Z,2.20
2022-10-24T09:04:25.174Z,1.67
2022-10-24T09:06:56.226Z,2.07
2022-10-24T09:09:39.589Z,1.33
2022-10-24T09:12:17.793Z,1.90
2022-10-24T09:14:57.971Z,1.87
2022-10-24T09:17:33.974Z,2.33
2022-10-24T09:20:29.081Z,1.67
2022-10-24T09:23:05.847Z,1.90
2022-10-24T09:25:39.202Z,1.80
2022-10-24T09:28:07.469Z,2.13
2022-10-24T09:30:37.623Z,1.93
2022-10-24T09:33:35.822Z,1.53
2022-10-24T09:36:05.964Z,1.60
2022-10-24T09:38:41.833Z,1.73
2022-10-24T09:41:30.183Z,2.00
2022-10-24T09:44:02.283Z,1.77
2022-10-24T09:46:50.147Z,1.67
2022-10-24T09:49:23.444Z,1.53
2022-10-24T09:52:25.832Z,1.80
2022-10-24T09:55:28.843Z,1.80
2022-10-24T09:58:04.146Z,1.90
2022-10-24T10:00:37.352Z,2.20
2022-10-24T10:03:23.876Z,1.70
2022-10-24T10:06:21.403Z,2.03
2022-10-24T10:08:58.265Z,2.00
2022-10-24T10:11:35.396Z,1.90
2022-10-24T10:14:24.032Z,1.90
2022-10-24T10:17:25.974Z,2.23
2022-10-24T10:19:56.200Z,1.80
2022-10-24T10:22:33.105Z,1.90
2022-10-24T10:25:01.476Z,2.10
2022-10-24T10:27:42.712Z,1.80
2022-10-24T10:30:16.409Z,2.10
2022-10-24T10:33:24.085Z,1.97
2022-10-24T10:36:31.577Z,1.90
2022-10-24T10:39:45.193Z,1.87
2022-10-24T10:42:55.888Z,1.90
2022-10-24T10:45:48.235Z,2.07
2022-10-24T10:49:28.468Z,2.20
2022-10-24T10:52:33.517Z,2.33
2022-10-24T10:56:00.084Z,2.07
2022-10-24T10:59:07.357Z,1.67
2022-10-24T11:02:15.419Z,2.10
2022-10-24T11:05:44.749Z,1.80
2022-10-24T11:09:05.306Z,1.87
2022-10-24T11:11:51.010Z,3.17
2022-10-24T11:14:57.759Z,2.67
2022-10-24T11:18:35.314Z,1.90
2022-10-24T11:21:15.781Z,1.90
2022-10-24T11:24:13.712Z,1.43
2022-10-24T11:27:24.529Z,1.57
2022-10-24T11:30:20.773Z,2.60
2022-10-24T11:33:04.615Z,1.87
2022-10-24T11:35:40.430Z,2.67
2022-10-24T11:38:20.896Z,2.10
2022-10-24T11:41:15.892Z,2.90
2022-10-24T11:43:48.956Z,2.17
2022-10-24T11:46:44.801Z,2.13
2022-10-24T11:49:49.215Z,2.30
2022-10-24T11:52:35.000Z,2.20
2022-10-24T11:55:28.685Z,2.57
2022-10-24T11:58:00.482Z,2.03
2022-10-24T12:01:16.178Z,3.63
2022-10-24T12:04:25.101Z,2.13
2022-10-24T12:08:22.268Z,1.50
2022-10-24T12:11:50.777Z,2.40
2022-10-24T12:15:03.795Z,2.20
2022-10-24T12:18:09.743Z,2.10
2022-10-24T12:20:40.532Z,1.70
2022-10-24T12:23:27.533Z,2.00
2022-10-24T12:26:31.016Z,2.43
2022-10-24T12:29:20.537Z,2.00
2022-10-24T12:31:48.304Z,3.37
2022-10-24T12:34:19.126Z,1.90
2022-10-24T12:37:19.997Z,3.17
2022-10-24T12:39:57.602Z,2.30
2022-10-24T12:42:26.155Z,2.80
2022-10-24T12:45:02.590Z,2.10
2022-10-24T12:48:12.685Z,2.63
2022-10-24T12:50:40.394Z,3.37
2022-10-24T12:53:38.362Z,2.73
2022-10-24T12:59:34.156Z,2.87
2022-10-24T13:02:25.716Z,2.37
2022-10-24T13:05:39.085Z,2.80
2022-10-24T13:09:07.054Z,2.37
2022-10-24T13:12:40.353Z,1.77
2022-10-24T13:15:58.966Z,2.43
2022-10-24T13:19:07.770Z,2.90
2022-10-24T13:22:35.652Z,1.80
2022-10-24T13:25:33.859Z,2.40
2022-10-24T13:28:20.157Z,3.20
2022-10-24T13:31:16.741Z,2.67
2022-10-24T13:33:47.644Z,2.40
2022-10-24T13:36:28.550Z,2.50
2022-10-24T13:39:02.378Z,2.80
2022-10-24T13:41:48.538Z,2.47
2022-10-24T13:44:48.541Z,2.23
2022-10-24T13:47:31.719Z,2.37
2022-10-24T13:50:32.319Z,1.90
2022-10-24T13:53:30.976Z,2.67
2022-10-24T13:56:10.779Z,1.83
2022-10-24T13:58:45.006Z,1.93
2022-10-24T14:01:30.692Z,2.20
2022-10-24T14:04:01.148Z,2.23
2022-10-24T14:06:34.110Z,2.43
2022-10-24T14:09:10.397Z,2.10
2022-10-24T14:11:49.115Z,3.10
2022-10-24T14:14:37.693Z,2.97
2022-10-24T14:17:28.851Z,4.20
2022-10-24T14:20:10.117Z,2.90
2022-10-24T14:22:41.399Z,2.90
2022-10-24T14:25:38.059Z,2.60
2022-10-24T14:28:29.157Z,2.70
2022-10-24T14:31:06.083Z,3.13
2022-10-24T14:33:51.272Z,2.80
2022-10-24T14:36:27.647Z,2.73
2022-10-24T14:39:01.050Z,3.43
2022-10-24T14:41:39.781Z,3.00
2022-10-24T14:44:16.748Z,3.43
2022-10-24T14:47:01.835Z,3.20
2022-10-24T14:49:36.962Z,2.27
2022-10-24T14:52:32.371Z,1.73
2022-10-24T14:55:21.866Z,1.63
2022-10-24T14:57:53.993Z,1.77
2022-10-24T15:00:38.015Z,1.73
2022-10-24T15:03:06.737Z,1.90
2022-10-24T15:05:37.029Z,2.20
2022-10-24T15:08:26.278Z,1.77
2022-10-24T15:11:29.091Z,1.80
2022-10-24T15:14:06.614Z,2.50
2022-10-24T15:16:42.334Z,3.00
2022-10-24T15:19:18.593Z,3.20
2022-10-24T15:21:48.541Z,3.10
2022-10-24T15:24:26.976Z,2.50
2022-10-24T15:27:13.352Z,2.40
2022-10-24T15:29:41.568Z,3.80
2022-10-24T15:32:11.792Z,2.80
2022-10-24T15:34:39.657Z,2.83
2022-10-24T15:37:21.592Z,3.07
2022-10-24T15:39:50.804Z,3.67
2022-10-24T15:42:21.651Z,3.10
2022-10-24T15:44:51.060Z,3.73
2022-10-24T15:47:18.721Z,3.73
2022-10-24T15:49:46.276Z,3.53
2022-10-24T15:52:16.925Z,3.10
2022-10-24T15:54:45.031Z,2.60
2022-10-24T15:57:15.804Z,3.67
2022-10-24T15:59:43.357Z,3.90
2022-10-24T16:02:23.607Z,2.93
2022-10-24T16:04:51.519Z,4.20
2022-10-24T16:07:19.784Z,3.87
2022-10-24T16:09:47.312Z,3.37
2022-10-24T16:12:14.934Z,3.33
2022-10-24T16:14:42.858Z,4.70
2022-10-24T16:17:10.479Z,3.60
2022-10-24T16:19:38.816Z,4.63
2022-10-24T16:22:07.657Z,3.43
2022-10-24T16:24:35.399Z,3.57
2022-10-24T16:27:02.973Z,3.93
2022-10-24T16:29:31.043Z,4.17
2022-10-24T16:31:58.749Z,4.93
2022-10-24T16:34:26.482Z,5.40
2022-10-24T16:36:55.953Z,7.87
2022-10-24T16:39:24.297Z,5.07
2022-10-24T16:41:56.025Z,6.63
2022-10-24T16:44:23.981Z,5.90
2022-10-24T16:46:54.394Z,5.77
2022-10-24T16:49:22.144Z,4.40
2022-10-24T16:51:49.760Z,4.60
2022-10-24T16:54:19.201Z,4.33
2022-10-24T16:56:53.418Z,4.53
2022-10-24T16:59:21.822Z,3.83
2022-10-24T17:01:50.398Z,5.70
2022-10-24T17:04:18.084Z,4.10
2022-10-24T17:06:48.722Z,4.90
2022-10-24T17:09:16.887Z,4.50
2022-10-24T17:11:46.408Z,5.30
2022-10-24T17:14:14.921Z,4.93
2022-10-24T17:16:44.438Z,5.90
2022-10-24T17:19:16.058Z,6.00
2022-10-24T17:21:51.713Z,6.00
2022-10-24T17:24:25.821Z,5.03
2022-10-24T17:26:54.868Z,6.03
2022-10-24T17:29:34.569Z,5.43
2022-10-24T17:32:02.508Z,6.10
2022-10-24T17:34:30.753Z,7.20
2022-10-24T17:38:13.425Z,8.10
2022-10-24T17:40:47.140Z,6.80
2022-10-24T17:43:26.858Z,8.00
2022-10-24T17:45:57.246Z,6.90
2022-10-24T17:48:26.195Z,8.60
2022-10-24T17:50:59.105Z,6.57
2022-10-24T17:53:26.712Z,7.03
2022-10-24T17:55:54.453Z,5.57
2022-10-24T17:58:22.793Z,5.83
2022-10-24T18:00:50.504Z,6.10
2022-10-24T18:03:19.494Z,5.00
2022-10-24T18:05:48.340Z,4.80
2022-10-24T18:08:16.517Z,5.60
2022-10-24T18:10:44.109Z,5.53
2022-10-24T18:13:11.821Z,5.60
2022-10-24T18:15:39.366Z,4.37
2022-10-24T18:18:07.467Z,3.93
2022-10-24T18:20:35.795Z,4.43
2022-10-24T18:23:04.237Z,4.80
2022-10-24T18:25:31.926Z,3.73
2022-10-24T18:27:59.587Z,4.43
2022-10-24T18:30:27.499Z,3.53
2022-10-24T18:32:55.665Z,3.07
2022-10-24T18:35:23.701Z,3.60
2022-10-24T18:40:21.417Z,3.70
2022-10-24T18:43:07.575Z,4.07
2022-10-24T18:45:36.709Z,3.30
2022-10-24T18:48:05.081Z,2.97
2022-10-24T18:50:33.135Z,2.40
2022-10-24T18:53:27.367Z,2.27
2022-10-24T18:55:55.441Z,2.00
2022-10-24T18:58:23.358Z,2.83
2022-10-24T19:00:58.918Z,2.60
2022-10-24T19:03:37.180Z,2.83
2022-10-24T19:06:36.215Z,2.43
2022-10-24T19:09:04.597Z,2.27
2022-10-24T19:11:32.500Z,2.20
2022-10-24T19:14:02.453Z,2.60
2022-10-24T19:16:32.387Z,2.00
2022-10-24T19:19:02.972Z,2.07
2022-10-24T19:21:30.773Z,1.87
2022-10-24T19:23:58.633Z,2.23
2022-10-24T19:26:26.396Z,2.30
2022-10-24T19:28:54.159Z,1.97
2022-10-24T19:31:21.840Z,2.13
2022-10-24T19:33:49.571Z,2.30
2022-10-24T19:36:19.338Z,2.07
2022-10-24T19:38:47.161Z,2.20
2022-10-24T19:41:14.858Z,2.50
2022-10-24T19:43:43.017Z,2.00
2022-10-24T19:46:26.200Z,2.30
2022-10-24T19:48:53.895Z,3.60
2022-10-24T19:51:23.338Z,2.40
2022-10-24T19:53:53.129Z,2.30
2022-10-24T19:56:26.891Z,2.20
2022-10-24T19:58:56.185Z,2.57
2022-10-24T20:01:31.216Z,2.17
2022-10-24T20:04:01.577Z,2.90
2022-10-24T20:06:29.269Z,2.97
2022-10-24T20:08:56.925Z,2.97
2022-10-24T20:11:24.991Z,3.50
2022-10-24T20:13:52.647Z,2.53
2022-10-24T20:16:20.453Z,2.63
2022-10-24T20:18:48.895Z,2.40
2022-10-24T20:21:19.053Z,3.00
2022-10-24T20:23:49.700Z,3.13
2022-10-24T20:26:25.863Z,3.67
2022-10-24T20:28:56.046Z,3.30
2022-10-24T20:31:39.694Z,3.00
2022-10-24T20:34:10.004Z,3.13
2022-10-24T20:36:44.555Z,2.50
2022-10-24T20:39:16.063Z,2.50
2022-10-24T20:41:43.820Z,2.00
2022-10-24T20:44:12.777Z,2.40
2022-10-24T20:46:41.123Z,2.60
2022-10-24T20:49:08.872Z,2.77
2022-10-24T20:51:36.840Z,2.03
2022-10-24T20:54:10.454Z,2.03
2022-10-24T20:56:42.361Z,2.23
2022-10-24T20:59:13.827Z,1.90
2022-10-24T21:01:41.803Z,1.90
2022-10-24T21:04:09.541Z,2.00
2022-10-24T21:06:37.916Z,1.97
2022-10-24T21:09:07.851Z,1.83
2022-10-24T21:11:36.321Z,1.70
2022-10-24T21:14:11.828Z,1.93
2022-10-24T21:16:39.668Z,2.20
2022-10-24T21:19:07.373Z,1.97
2022-10-24T21:21:35.131Z,2.33
2022-10-24T21:24:06.519Z,1.87
2022-10-24T21:26:38.712Z,2.40
2022-10-24T21:29:27.959Z,2.07
2022-10-24T21:31:56.950Z,2.47
2022-10-24T21:34:25.952Z,2.30
2022-10-24T21:36:55.452Z,2.23
2022-10-24T21:39:23.081Z,2.17
2022-10-24T21:41:50.812Z,2.03
2022-10-24T21:44:18.492Z,1.73
2022-10-24T21:46:46.154Z,2.93
2022-10-24T21:49:14.422Z,2.50
2022-10-24T21:51:43.883Z,2.40
2022-10-24T21:54:23.672Z,3.40
2022-10-24T21:56:52.109Z,3.07
2022-10-24T21:59:22.367Z,2.80
2022-10-24T22:01:52.394Z,2.73
2022-10-24T22:04:21.224Z,2.90
2022-10-24T22:06:49.250Z,2.90
2022-10-24T22:09:23.819Z,2.20
2022-10-24T22:11:51.968Z,2.70
2022-10-24T22:14:19.599Z,2.10
2022-10-24T22:16:47.566Z,2.57
2022-10-24T22:19:16.438Z,2.57
2022-10-24T22:21:50.423Z,2.20
2022-10-24T22:24:23.954Z,3.17
2022-10-24T22:26:53.113Z,2.17
2022-10-24T22:29:24.535Z,1.87
2022-10-24T22:31:54.268Z,2.30
2022-10-24T22:34:26.071Z,2.47
2022-10-24T22:37:36.764Z,1.63
2022-10-24T22:40:22.868Z,2.10
2022-10-24T22:42:51.417Z,1.53
2022-10-24T22:45:20.236Z,1.70
2022-10-24T22:48:17.637Z,1.73
2022-10-24T22:50:55.573Z,1.70
2022-10-24T22:53:31.153Z,1.90
2022-10-24T22:56:33.447Z,2.17
2022-10-24T22:59:03.292Z,2.43
2022-10-24T23:02:30.184Z,2.03
2022-10-24T23:05:56.527Z,2.27
2022-10-24T23:08:40.530Z,2.60
2022-10-24T23:11:13.658Z,2.43
2022-10-24T23:13:42.928Z,2.27
2022-10-24T23:16:40.257Z,2.43
2022-10-24T23:19:29.763Z,2.40
2022-10-24T23:22:41.020Z,2.20
2022-10-24T23:25:13.664Z,3.00
2022-10-24T23:27:44.428Z,2.70
2022-10-24T23:30:23.674Z,3.50
2022-10-24T23:32:52.842Z,2.33
2022-10-24T23:35:22.954Z,3.27
2022-10-24T23:37:53.987Z,2.47
2022-10-24T23:40:37.206Z,3.20
2022-10-24T23:43:06.809Z,3.13
2022-10-24T23:46:27.715Z,3.00
2022-10-24T23:49:30.765Z,4.40
2022-10-24T23:52:23.918Z,7.13
2022-10-24T23:54:52.257Z,5.97
2022-10-24T23:57:21.332Z,5.20
2022-10-24T23:59:48.927Z,3.83
